createdAt,value
2019-05-18T00:02:11.136Z,71.90
2019-05-18T00:04:39.534Z,72.00
2019-05-18T00:07:07.941Z,71.90
2019-05-18T00:09:36.369Z,71.60
2019-05-18T00:12:04.861Z,71.60
2019-05-18T00:14:33.309Z,71.30
2019-05-18T00:17:01.757Z,71.20
2019-05-18T00:19:30.135Z,71.30
2019-05-18T00:21:58.563Z,71.00
2019-05-18T00:24:26.961Z,70.90
2019-05-18T00:27:14.727Z,70.80
2019-05-18T00:29:43.121Z,70.80
2019-05-18T00:32:11.550Z,70.60
2019-05-18T00:34:40.023Z,70.60
2019-05-18T00:37:08.457Z,70.50
2019-05-18T00:39:36.850Z,70.40
2019-05-18T00:42:05.262Z,70.60
2019-05-18T00:44:33.666Z,70.50
2019-05-18T00:47:02.118Z,70.40
2019-05-18T00:49:30.887Z,70.60
2019-05-18T00:51:59.298Z,70.20
2019-05-18T00:54:27.697Z,70.40
2019-05-18T00:56:56.123Z,70.10
2019-05-18T00:59:24.575Z,70.00
2019-05-18T01:01:53.031Z,70.20
2019-05-18T01:04:22.238Z,70.20
2019-05-18T01:06:50.946Z,70.20
2019-05-18T01:09:19.368Z,70.20
2019-05-18T01:11:47.761Z,70.60
2019-05-18T01:14:16.196Z,70.40
2019-05-18T01:16:45.608Z,70.40
2019-05-18T01:19:14.322Z,70.70
2019-05-18T01:21:42.707Z,70.70
2019-05-18T01:24:11.135Z,70.90
2019-05-18T01:26:39.530Z,70.80
2019-05-18T01:29:08.186Z,71.40
2019-05-18T01:31:36.741Z,71.10
2019-05-18T01:34:05.167Z,71.50
2019-05-18T01:36:33.580Z,71.60
2019-05-18T01:39:02.000Z,71.60
2019-05-18T01:41:30.405Z,71.40
2019-05-18T01:43:58.832Z,71.30
2019-05-18T01:46:27.242Z,71.50
2019-05-18T01:48:55.693Z,71.60
2019-05-18T01:51:24.099Z,71.40
2019-05-18T01:53:52.527Z,71.40
2019-05-18T01:56:20.985Z,71.70
2019-05-18T01:58:49.432Z,71.50
2019-05-18T02:01:17.847Z,71.60
2019-05-18T02:03:46.263Z,71.50
2019-05-18T02:06:14.694Z,71.60
2019-05-18T02:08:43.102Z,71.70
2019-05-18T02:11:11.536Z,71.90
2019-05-18T02:13:39.997Z,71.90
2019-05-18T02:16:08.417Z,72.10
2019-05-18T02:18:36.836Z,72.20
2019-05-18T02:21:05.248Z,72.30
2019-05-18T02:23:33.641Z,72.40
2019-05-18T02:26:02.067Z,72.70
2019-05-18T02:28:30.481Z,72.80
2019-05-18T02:30:58.898Z,73.00
2019-05-18T02:33:46.731Z,74.10
2019-05-18T02:36:15.141Z,73.70
2019-05-18T02:38:43.543Z,73.60
2019-05-18T02:41:11.959Z,73.80
2019-05-18T02:43:40.366Z,73.90
2019-05-18T02:46:09.125Z,74.00
2019-05-18T02:48:48.577Z,74.10
2019-05-18T02:51:11.452Z,74.20
2019-05-18T02:53:38.466Z,74.40
2019-05-18T02:56:06.884Z,74.60
2019-05-18T02:58:35.608Z,74.70
2019-05-18T03:01:04.421Z,74.90
2019-05-18T03:03:32.820Z,75.10
2019-05-18T03:06:01.299Z,75.20
2019-05-18T03:08:29.818Z,75.40
2019-05-18T03:10:58.311Z,75.60
2019-05-18T03:13:26.727Z,75.60
2019-05-18T03:15:55.194Z,75.80
2019-05-18T03:18:23.601Z,75.80
2019-05-18T03:20:52.118Z,75.80
2019-05-18T03:23:20.539Z,76.00
2019-05-18T03:25:49.018Z,75.90
2019-05-18T03:28:17.411Z,75.80
2019-05-18T03:30:45.835Z,76.20
2019-05-18T03:33:14.251Z,76.20
2019-05-18T03:35:42.669Z,76.50
2019-05-18T03:38:11.225Z,76.30
2019-05-18T03:40:39.699Z,76.90
2019-05-18T03:43:08.456Z,77.00
2019-05-18T03:45:36.862Z,76.50
2019-05-18T03:48:05.333Z,76.40
2019-05-18T03:50:33.753Z,76.50
2019-05-18T03:53:02.183Z,76.80
2019-05-18T03:55:30.771Z,76.60
2019-05-18T03:57:59.173Z,76.40
2019-05-18T04:00:27.581Z,76.70
2019-05-18T04:02:55.990Z,76.30
2019-05-18T04:05:24.670Z,76.20
2019-05-18T04:07:53.084Z,76.00
2019-05-18T04:10:27.285Z,76.10
2019-05-18T04:12:55.769Z,76.00
2019-05-18T04:15:24.179Z,75.80
2019-05-18T04:17:52.604Z,75.80
2019-05-18T04:20:21.300Z,75.70
2019-05-18T04:22:49.712Z,75.70
2019-05-18T04:25:18.167Z,75.70
2019-05-18T04:27:46.818Z,75.60
2019-05-18T04:30:15.567Z,75.60
2019-05-18T04:32:43.984Z,75.80
2019-05-18T04:35:12.453Z,75.50
2019-05-18T04:37:41.162Z,75.70
2019-05-18T04:40:09.997Z,75.70
2019-05-18T04:42:38.414Z,75.90
2019-05-18T04:45:08.673Z,75.40
2019-05-18T04:47:37.099Z,75.40
2019-05-18T04:50:07.431Z,75.20
2019-05-18T04:52:35.851Z,75.10
2019-05-18T04:55:05.703Z,76.00
2019-05-18T04:57:34.109Z,75.10
2019-05-18T05:00:02.695Z,75.10
2019-05-18T05:02:31.103Z,75.10
2019-05-18T05:04:59.517Z,75.10
2019-05-18T05:07:27.929Z,75.20
2019-05-18T05:09:56.337Z,75.20
2019-05-18T05:12:24.751Z,75.40
2019-05-18T05:14:53.153Z,75.40
2019-05-18T05:17:21.816Z,75.40
2019-05-18T05:19:50.237Z,75.40
2019-05-18T05:22:18.723Z,75.50
2019-05-18T05:24:47.152Z,75.60
2019-05-18T05:27:15.800Z,75.30
2019-05-18T05:29:44.193Z,75.30
2019-05-18T05:32:12.622Z,75.10
2019-05-18T05:34:41.015Z,75.00
2019-05-18T05:37:09.432Z,75.70
2019-05-18T05:39:37.853Z,74.90
2019-05-18T05:42:06.416Z,74.60
2019-05-18T05:44:35.141Z,74.50
2019-05-18T05:47:03.570Z,74.30
2019-05-18T05:49:31.979Z,74.20
2019-05-18T05:52:00.399Z,74.10
2019-05-18T05:54:29.710Z,73.90
2019-05-18T05:56:58.126Z,73.80
2019-05-18T05:59:26.533Z,73.80
2019-05-18T06:01:55.161Z,73.80
2019-05-18T06:04:23.585Z,73.90
2019-05-18T06:06:51.993Z,73.80
2019-05-18T06:09:20.411Z,73.90
2019-05-18T06:11:48.810Z,73.70
2019-05-18T06:14:17.238Z,73.70
2019-05-18T06:16:45.717Z,73.50
2019-05-18T06:19:14.130Z,73.50
2019-05-18T06:21:42.547Z,73.30
2019-05-18T06:24:10.973Z,73.20
2019-05-18T06:26:39.401Z,73.20
2019-05-18T06:29:08.099Z,73.00
2019-05-18T06:31:36.496Z,72.60
2019-05-18T06:34:04.912Z,72.50
2019-05-18T06:36:33.330Z,72.10
2019-05-18T06:39:01.744Z,71.90
2019-05-18T06:41:30.168Z,71.80
2019-05-18T06:43:58.606Z,71.60
2019-05-18T06:46:27.056Z,71.60
2019-05-18T06:48:55.454Z,71.50
2019-05-18T06:51:23.871Z,71.30
2019-05-18T06:53:53.239Z,71.10
2019-05-18T06:56:22.599Z,70.90
2019-05-18T06:58:53.037Z,71.00
2019-05-18T07:01:21.472Z,71.00
2019-05-18T07:03:49.870Z,70.40
2019-05-18T07:06:18.307Z,70.00
2019-05-18T07:08:46.729Z,69.50
2019-05-18T07:11:15.203Z,69.00
2019-05-18T07:13:43.598Z,69.20
2019-05-18T07:16:12.009Z,69.30
2019-05-18T07:18:40.424Z,69.50
2019-05-18T07:21:21.368Z,68.60
2019-05-18T07:23:39.175Z,67.60
2019-05-18T07:26:07.662Z,66.60
2019-05-18T07:28:36.067Z,66.20
2019-05-18T07:31:04.721Z,65.60
2019-05-18T07:33:33.122Z,65.80
2019-05-18T07:36:01.530Z,64.30
2019-05-18T07:38:29.934Z,64.10
2019-05-18T07:40:58.376Z,63.20
2019-05-18T07:43:27.685Z,62.10
2019-05-18T07:45:56.170Z,60.30
2019-05-18T07:48:24.567Z,59.20
2019-05-18T07:50:52.979Z,58.50
2019-05-18T07:53:21.376Z,58.00
2019-05-18T07:55:50.082Z,57.70
2019-05-18T07:58:18.614Z,57.90
2019-05-18T08:00:47.097Z,57.80
2019-05-18T08:03:15.731Z,57.80
2019-05-18T08:05:44.125Z,57.90
2019-05-18T08:08:12.972Z,58.00
2019-05-18T08:10:43.618Z,57.90
2019-05-18T08:13:11.579Z,58.30
2019-05-18T08:15:39.964Z,58.30
2019-05-18T08:18:08.863Z,58.40
2019-05-18T08:20:38.057Z,58.60
2019-05-18T08:23:06.478Z,58.60
2019-05-18T08:25:34.890Z,58.60
2019-05-18T08:28:03.311Z,59.00
2019-05-18T08:30:31.716Z,59.30
2019-05-18T08:33:00.147Z,59.60
2019-05-18T08:35:28.538Z,59.60
2019-05-18T08:37:56.950Z,59.20
2019-05-18T08:40:25.362Z,59.10
2019-05-18T08:42:53.998Z,59.00
2019-05-18T08:45:22.398Z,58.70
2019-05-18T08:47:50.823Z,58.50
2019-05-18T08:50:19.216Z,58.50
2019-05-18T08:52:47.630Z,59.10
2019-05-18T08:55:16.879Z,59.60
2019-05-18T08:57:45.341Z,59.80
2019-05-18T09:00:14.172Z,58.20
2019-05-18T09:02:42.585Z,55.40
2019-05-18T09:05:11.357Z,53.60
2019-05-18T09:07:39.776Z,52.70
2019-05-18T09:10:09.566Z,52.40
2019-05-18T09:12:37.982Z,51.90
2019-05-18T09:15:08.003Z,51.90
2019-05-18T09:17:36.414Z,51.90
2019-05-18T09:20:08.265Z,51.30
2019-05-18T09:22:36.678Z,51.70
2019-05-18T09:25:08.499Z,51.70
2019-05-18T09:27:36.944Z,51.80
2019-05-18T09:30:09.562Z,52.30
2019-05-18T09:32:38.330Z,52.60
2019-05-18T09:35:08.756Z,52.90
2019-05-18T09:37:37.583Z,52.90
2019-05-18T09:40:07.499Z,53.20
2019-05-18T09:42:38.786Z,53.10
2019-05-18T09:45:08.040Z,53.60
2019-05-18T09:47:36.451Z,53.80
2019-05-18T09:50:06.411Z,54.10
2019-05-18T09:52:44.990Z,54.20
2019-05-18T09:55:07.097Z,54.40
2019-05-18T09:57:35.499Z,54.50
2019-05-18T10:00:10.487Z,54.50
2019-05-18T10:02:39.066Z,54.30
2019-05-18T10:05:08.523Z,54.50
2019-05-18T10:07:37.165Z,54.50
2019-05-18T10:10:08.834Z,53.60
2019-05-18T10:12:37.403Z,54.00
2019-05-18T10:15:09.263Z,53.70
2019-05-18T10:17:37.677Z,53.60
2019-05-18T10:20:07.992Z,53.20
2019-05-18T10:22:36.397Z,52.50
2019-05-18T10:25:06.769Z,51.30
2019-05-18T10:27:35.169Z,50.50
2019-05-18T10:30:05.921Z,50.10
2019-05-18T10:32:34.398Z,49.30
2019-05-18T10:35:02.811Z,48.90
2019-05-18T10:37:31.205Z,48.70
2019-05-18T10:39:59.624Z,49.60
2019-05-18T10:42:28.013Z,48.80
2019-05-18T10:44:56.439Z,48.50
2019-05-18T10:47:24.852Z,47.60
2019-05-18T10:49:53.257Z,45.00
2019-05-18T10:52:21.851Z,44.00
2019-05-18T10:54:50.342Z,44.80
2019-05-18T10:57:18.804Z,45.10
2019-05-18T10:59:47.186Z,43.90
2019-05-18T11:02:15.590Z,43.60
2019-05-18T11:04:44.003Z,43.50
2019-05-18T11:07:12.406Z,43.40
2019-05-18T11:09:40.831Z,43.20
2019-05-18T11:12:09.287Z,43.40
2019-05-18T11:14:37.708Z,43.50
2019-05-18T11:17:06.111Z,41.70
2019-05-18T11:19:34.540Z,42.30
2019-05-18T11:22:02.938Z,41.30
2019-05-18T11:24:31.584Z,41.30
2019-05-18T11:27:00.037Z,41.60
2019-05-18T11:29:28.423Z,41.30
2019-05-18T11:31:56.911Z,41.50
2019-05-18T11:34:25.325Z,40.80
2019-05-18T11:36:53.723Z,40.80
2019-05-18T11:39:22.229Z,40.90
2019-05-18T11:41:50.673Z,41.20
2019-05-18T11:44:19.898Z,40.50
2019-05-18T11:46:48.310Z,40.20
2019-05-18T11:49:17.631Z,39.80
2019-05-18T11:51:46.036Z,39.10
2019-05-18T11:54:14.681Z,39.20
2019-05-18T11:56:43.188Z,40.00
2019-05-18T11:59:11.585Z,40.10
2019-05-18T12:01:39.999Z,40.40
2019-05-18T12:04:08.402Z,40.50
2019-05-18T12:06:36.924Z,39.70
2019-05-18T12:09:05.864Z,39.70
2019-05-18T12:11:34.312Z,39.80
2019-05-18T12:14:02.747Z,39.70
2019-05-18T12:16:31.143Z,38.90
2019-05-18T12:18:59.538Z,37.50
2019-05-18T12:21:27.975Z,37.30
2019-05-18T12:23:56.401Z,37.10
2019-05-18T12:26:25.751Z,37.00
2019-05-18T12:28:54.146Z,36.60
2019-05-18T12:31:22.623Z,36.70
2019-05-18T12:33:51.033Z,36.90
2019-05-18T12:36:19.441Z,37.30
2019-05-18T12:38:47.859Z,38.20
2019-05-18T12:41:17.915Z,37.20
2019-05-18T12:43:46.318Z,37.20
2019-05-18T12:46:14.753Z,37.10
2019-05-18T12:48:43.164Z,37.50
2019-05-18T12:51:11.631Z,37.70
2019-05-18T12:53:40.048Z,37.80
2019-05-18T12:56:08.443Z,38.20
2019-05-18T12:58:37.716Z,38.50
2019-05-18T13:01:06.342Z,38.90
2019-05-18T13:03:34.762Z,39.10
2019-05-18T13:06:03.533Z,39.00
2019-05-18T13:08:32.002Z,38.70
2019-05-18T13:11:00.483Z,38.70
2019-05-18T13:13:28.977Z,38.70
2019-05-18T13:15:57.376Z,39.00
2019-05-18T13:18:25.782Z,38.40
2019-05-18T13:20:54.182Z,38.70
2019-05-18T13:23:22.590Z,38.90
2019-05-18T13:25:50.993Z,38.70
2019-05-18T13:28:19.590Z,38.10
2019-05-18T13:30:48.275Z,38.20
2019-05-18T13:33:16.896Z,38.50
2019-05-18T13:35:45.767Z,38.30
2019-05-18T13:38:14.880Z,38.10
2019-05-18T13:40:43.425Z,38.30
2019-05-18T13:43:11.911Z,37.90
2019-05-18T13:45:40.316Z,37.10
2019-05-18T13:48:08.724Z,37.60
2019-05-18T13:50:37.131Z,37.90
2019-05-18T13:53:05.678Z,38.10
2019-05-18T13:55:34.255Z,37.30
2019-05-18T13:58:02.679Z,37.30
2019-05-18T14:00:31.074Z,36.80
2019-05-18T14:02:59.517Z,37.10
2019-05-18T14:05:28.078Z,37.20
2019-05-18T14:07:56.479Z,37.00
2019-05-18T14:10:24.945Z,37.30
2019-05-18T14:12:53.530Z,37.40
2019-05-18T14:15:23.087Z,37.60
2019-05-18T14:17:51.813Z,37.30
2019-05-18T14:20:20.650Z,36.60
2019-05-18T14:22:49.050Z,35.60
2019-05-18T14:25:19.854Z,35.50
2019-05-18T14:27:48.006Z,35.60
2019-05-18T14:30:16.499Z,35.70
2019-05-18T14:32:45.793Z,35.60
2019-05-18T14:35:14.194Z,35.60
2019-05-18T14:37:42.599Z,35.60
2019-05-18T14:40:12.251Z,35.40
2019-05-18T14:42:40.715Z,35.20
2019-05-18T14:45:09.777Z,35.10
2019-05-18T14:47:38.185Z,35.30
2019-05-18T14:50:07.545Z,35.60
2019-05-18T14:52:36.411Z,36.10
2019-05-18T14:55:06.434Z,36.40
2019-05-18T14:57:34.841Z,36.90
2019-05-18T15:00:04.349Z,37.20
2019-05-18T15:02:32.761Z,37.30
2019-05-18T15:05:01.271Z,37.70
2019-05-18T15:07:29.786Z,38.10
2019-05-18T15:09:58.317Z,38.30
2019-05-18T15:12:26.731Z,38.50
2019-05-18T15:14:55.178Z,38.70
2019-05-18T15:17:23.774Z,38.90
2019-05-18T15:19:52.706Z,39.20
2019-05-18T15:22:21.108Z,39.10
2019-05-18T15:24:49.613Z,38.80
2019-05-18T15:27:18.181Z,39.00
2019-05-18T15:29:46.650Z,39.00
2019-05-18T15:32:15.044Z,39.10
2019-05-18T15:34:43.756Z,39.10
2019-05-18T15:37:12.307Z,39.10
2019-05-18T15:39:41.038Z,39.10
2019-05-18T15:42:09.714Z,39.20
2019-05-18T15:44:38.293Z,39.30
2019-05-18T15:47:06.809Z,39.30
2019-05-18T15:49:35.406Z,39.40
2019-05-18T15:52:03.879Z,39.60
2019-05-18T15:54:32.330Z,39.90
2019-05-18T15:57:00.723Z,40.10
2019-05-18T15:59:29.395Z,40.40
2019-05-18T16:01:57.819Z,40.50
2019-05-18T16:04:26.302Z,40.80
2019-05-18T16:06:54.750Z,40.90
2019-05-18T16:09:23.150Z,41.80
2019-05-18T16:11:51.732Z,42.90
2019-05-18T16:14:20.126Z,43.70
2019-05-18T16:16:48.608Z,44.40
2019-05-18T16:19:17.143Z,45.30
2019-05-18T16:21:45.849Z,46.30
2019-05-18T16:24:14.376Z,47.20
2019-05-18T16:26:42.831Z,48.00
2019-05-18T16:29:11.422Z,48.90
2019-05-18T16:31:39.840Z,49.90
2019-05-18T16:34:08.278Z,50.30
2019-05-18T16:36:36.697Z,50.70
2019-05-18T16:39:06.942Z,50.70
2019-05-18T16:41:35.370Z,51.30
2019-05-18T16:44:03.811Z,51.80
2019-05-18T16:46:32.422Z,52.20
2019-05-18T16:49:00.823Z,52.50
2019-05-18T16:51:29.242Z,52.90
2019-05-18T16:53:57.724Z,53.30
2019-05-18T16:56:34.960Z,53.90
2019-05-18T16:58:56.702Z,54.60
2019-05-18T17:01:25.171Z,55.30
2019-05-18T17:03:53.875Z,56.00
2019-05-18T17:06:22.317Z,56.50
2019-05-18T17:08:50.806Z,57.20
2019-05-18T17:11:19.212Z,57.60
2019-05-18T17:13:47.605Z,58.00
2019-05-18T17:16:16.022Z,58.40
2019-05-18T17:18:44.470Z,58.90
2019-05-18T17:21:12.889Z,58.90
2019-05-18T17:23:41.294Z,58.90
2019-05-18T17:26:09.956Z,59.10
2019-05-18T17:28:38.528Z,59.00
2019-05-18T17:31:06.934Z,59.00
2019-05-18T17:33:35.569Z,59.10
2019-05-18T17:36:04.046Z,58.90
2019-05-18T17:38:32.551Z,59.10
2019-05-18T17:41:00.972Z,59.20
2019-05-18T17:43:29.446Z,59.20
2019-05-18T17:45:57.906Z,59.20
2019-05-18T17:48:27.093Z,59.30
2019-05-18T17:50:55.497Z,59.50
2019-05-18T17:53:23.939Z,59.50
2019-05-18T17:55:52.475Z,59.70
2019-05-18T17:58:20.892Z,59.80
2019-05-18T18:00:49.660Z,60.20
2019-05-18T18:03:18.074Z,60.00
2019-05-18T18:05:46.522Z,60.10
2019-05-18T18:08:15.014Z,60.40
2019-05-18T18:10:44.182Z,60.40
2019-05-18T18:13:12.653Z,60.20
2019-05-18T18:15:41.058Z,60.20
2019-05-18T18:18:09.462Z,60.20
2019-05-18T18:20:37.892Z,60.20
2019-05-18T18:23:06.379Z,60.20
2019-05-18T18:25:34.786Z,60.00
2019-05-18T18:28:03.196Z,59.90
2019-05-18T18:30:31.598Z,60.00
2019-05-18T18:33:00.019Z,60.00
2019-05-18T18:35:28.494Z,60.30
2019-05-18T18:37:56.974Z,60.40
2019-05-18T18:40:25.380Z,60.60
2019-05-18T18:42:53.920Z,60.90
2019-05-18T18:45:22.610Z,61.00
2019-05-18T18:47:51.013Z,61.30
2019-05-18T18:50:19.498Z,61.60
2019-05-18T18:52:47.898Z,61.60
2019-05-18T18:55:16.381Z,62.60
2019-05-18T18:57:44.855Z,62.00
2019-05-18T19:00:14.008Z,62.30
2019-05-18T19:02:42.407Z,62.50
2019-05-18T19:05:11.167Z,62.60
2019-05-18T19:07:39.570Z,62.90
2019-05-18T19:10:09.054Z,63.10
2019-05-18T19:12:37.483Z,63.30
2019-05-18T19:15:07.523Z,63.60
2019-05-18T19:17:35.927Z,63.70
2019-05-18T19:20:05.599Z,64.20
2019-05-18T19:22:33.991Z,64.40
2019-05-18T19:25:02.401Z,64.80
2019-05-18T19:27:30.804Z,65.00
2019-05-18T19:29:59.218Z,65.00
2019-05-18T19:32:27.629Z,65.20
2019-05-18T19:34:56.026Z,65.70
2019-05-18T19:37:26.350Z,65.60
2019-05-18T19:39:54.888Z,65.90
2019-05-18T19:42:23.294Z,65.90
2019-05-18T19:44:51.693Z,66.20
2019-05-18T19:47:20.101Z,66.40
2019-05-18T19:49:48.537Z,67.00
2019-05-18T19:52:16.996Z,67.30
2019-05-18T19:54:45.403Z,67.10
2019-05-18T19:57:13.859Z,67.10
2019-05-18T19:59:42.326Z,67.40
2019-05-18T20:02:10.753Z,67.70
2019-05-18T20:04:39.165Z,67.90
2019-05-18T20:07:07.607Z,67.90
2019-05-18T20:09:36.959Z,68.60
2019-05-18T20:12:05.426Z,68.50
2019-05-18T20:14:33.827Z,68.50
2019-05-18T20:17:02.295Z,69.70
2019-05-18T20:19:38.807Z,68.90
2019-05-18T20:22:00.875Z,68.90
2019-05-18T20:24:29.287Z,69.10
2019-05-18T20:26:57.734Z,69.00
2019-05-18T20:29:26.134Z,68.90
2019-05-18T20:31:54.629Z,69.10
2019-05-18T20:34:23.022Z,69.20
2019-05-18T20:36:51.590Z,70.10
2019-05-18T20:39:19.985Z,69.20
2019-05-18T20:41:48.403Z,69.20
2019-05-18T20:44:16.814Z,69.30
2019-05-18T20:46:45.219Z,69.50
2019-05-18T20:49:13.638Z,69.50
2019-05-18T20:51:42.646Z,69.70
2019-05-18T20:54:11.086Z,69.90
2019-05-18T20:56:39.493Z,70.40
2019-05-18T20:59:07.920Z,70.40
2019-05-18T21:01:36.323Z,70.80
2019-05-18T21:04:04.752Z,70.90
2019-05-18T21:06:33.153Z,71.00
2019-05-18T21:09:01.615Z,71.30
2019-05-18T21:11:30.013Z,71.40
2019-05-18T21:13:58.516Z,71.60
2019-05-18T21:16:26.939Z,71.70
2019-05-18T21:18:55.360Z,71.60
2019-05-18T21:21:26.010Z,71.90
2019-05-18T21:23:53.906Z,71.40
2019-05-18T21:26:22.306Z,70.90
2019-05-18T21:28:57.574Z,70.50
2019-05-18T21:31:20.908Z,70.20
2019-05-18T21:33:49.589Z,70.10
2019-05-18T21:36:17.990Z,70.10
2019-05-18T21:38:46.401Z,70.00
2019-05-18T21:41:14.819Z,70.00
2019-05-18T21:43:43.244Z,70.00
2019-05-18T21:46:11.658Z,70.10
2019-05-18T21:48:40.094Z,69.90
2019-05-18T21:51:08.735Z,70.00
2019-05-18T21:53:37.154Z,70.10
2019-05-18T21:56:05.555Z,70.30
2019-05-18T21:58:34.111Z,70.30
2019-05-18T22:01:02.676Z,71.50
2019-05-18T22:03:31.139Z,70.70
2019-05-18T22:05:59.607Z,70.90
2019-05-18T22:08:28.027Z,71.20
2019-05-18T22:10:56.423Z,72.10
2019-05-18T22:13:24.844Z,71.30
2019-05-18T22:16:12.584Z,71.50
2019-05-18T22:18:41.002Z,71.70
2019-05-18T22:21:09.417Z,71.80
2019-05-18T22:23:37.828Z,71.90
2019-05-18T22:26:06.235Z,72.30
2019-05-18T22:28:34.642Z,72.80
2019-05-18T22:31:03.120Z,72.90
2019-05-18T22:33:31.611Z,73.00
2019-05-18T22:36:00.069Z,73.20
2019-05-18T22:38:28.551Z,73.30
2019-05-18T22:40:57.013Z,73.40
2019-05-18T22:43:25.772Z,73.50
2019-05-18T22:45:54.179Z,73.30
2019-05-18T22:48:22.619Z,73.70
2019-05-18T22:50:51.090Z,73.70
2019-05-18T22:53:19.597Z,74.00
2019-05-18T22:55:48.020Z,74.10
2019-05-18T22:58:16.425Z,74.10
2019-05-18T23:00:44.837Z,74.10
2019-05-18T23:03:13.234Z,74.20
2019-05-18T23:05:42.570Z,74.50
2019-05-18T23:08:10.985Z,74.50
2019-05-18T23:10:39.558Z,74.70
2019-05-18T23:13:07.970Z,75.70
2019-05-18T23:15:36.377Z,75.00
2019-05-18T23:18:04.782Z,75.20
2019-05-18T23:20:33.209Z,75.30
2019-05-18T23:23:01.618Z,75.30
2019-05-18T23:25:30.099Z,75.40
2019-05-18T23:27:58.590Z,75.40
2019-05-18T23:30:26.983Z,75.60
2019-05-18T23:32:55.688Z,75.70
2019-05-18T23:35:24.090Z,75.90
2019-05-18T23:37:52.524Z,76.00
2019-05-18T23:40:21.146Z,76.00
2019-05-18T23:42:49.583Z,76.00
2019-05-18T23:45:18.055Z,76.20
2019-05-18T23:47:46.457Z,76.30
2019-05-18T23:50:15.210Z,76.30
2019-05-18T23:52:43.619Z,76.20
2019-05-18T23:55:12.586Z,76.00
2019-05-18T23:57:40.970Z,76.20
